createdAt,value
2018-05-12T00:00:02.330Z,12.3
2018-05-12T00:15:02.633Z,11.9
2018-05-12T00:30:02.897Z,11.9
2018-05-12T00:45:03.146Z,11.9
2018-05-12T01:00:02.402Z,11.8
2018-05-12T01:15:02.615Z,11.7
2018-05-12T01:30:03.001Z,11.6
2018-05-12T01:45:02.251Z,11.3
2018-05-12T02:00:02.522Z,11.3
2018-05-12T02:15:02.739Z,11.2
2018-05-12T02:30:03.099Z,11.2
2018-05-12T02:45:02.316Z,11
2018-05-12T03:00:02.569Z,10.9
2018-05-12T03:15:02.809Z,10.7
2018-05-12T03:30:03.138Z,10.6
2018-05-12T03:45:02.382Z,10.4
2018-05-12T04:00:02.720Z,10.4
2018-05-12T04:15:02.983Z,10.5
2018-05-12T04:30:02.286Z,10.7
2018-05-12T04:45:02.501Z,10.9
2018-05-12T05:00:02.727Z,11.2
2018-05-12T05:15:02.987Z,11.6
2018-05-12T05:30:02.278Z,11.9
2018-05-12T05:45:02.560Z,12.4
2018-05-12T06:00:02.994Z,12.8
2018-05-12T06:15:02.359Z,13.2
2018-05-12T06:30:02.759Z,13.6
2018-05-12T06:45:02.986Z,14
2018-05-12T07:00:02.257Z,14.6
2018-05-12T07:15:02.582Z,15.1
2018-05-12T07:30:02.929Z,15.6
2018-05-12T07:45:04.016Z,16.4
2018-05-12T08:00:02.352Z,17.5
2018-05-12T08:15:02.648Z,19.1
2018-05-12T08:30:02.929Z,20.6
2018-05-12T08:45:02.198Z,21.4
2018-05-12T09:00:02.421Z,22.1
2018-05-12T09:15:02.782Z,22.5
2018-05-12T09:30:03.122Z,23.8
2018-05-12T09:45:02.454Z,24.7
2018-05-12T10:00:02.786Z,24.4
2018-05-12T10:15:02.993Z,26.2
2018-05-12T10:30:02.315Z,26.8
2018-05-12T10:45:02.553Z,27.4
2018-05-12T11:00:02.799Z,28.1
2018-05-12T11:15:03.117Z,26.4
2018-05-12T11:30:02.466Z,27.4
2018-05-12T11:45:02.708Z,29
2018-05-12T12:00:03.011Z,29.2
2018-05-12T12:15:02.267Z,28
2018-05-12T12:30:02.566Z,27.2
2018-05-12T12:45:02.814Z,27
2018-05-12T13:00:03.140Z,27.2
2018-05-12T13:15:02.486Z,28.1
2018-05-12T13:30:02.773Z,30.1
2018-05-12T13:45:03.079Z,29.2
2018-05-12T14:00:02.361Z,29.1
2018-05-12T14:15:02.594Z,28.9
2018-05-12T14:30:02.878Z,28.7
2018-05-12T14:45:03.312Z,27.6
2018-05-12T15:00:02.605Z,25.6
2018-05-12T15:15:02.809Z,25.5
2018-05-12T15:30:03.142Z,25.4
2018-05-12T15:45:02.372Z,25.5
2018-05-12T16:00:02.601Z,24.6
2018-05-12T16:15:02.864Z,24.1
2018-05-12T16:30:03.212Z,23.4
2018-05-12T16:45:02.408Z,23.3
2018-05-12T17:00:02.681Z,23.1
2018-05-12T17:15:02.913Z,22.8
2018-05-12T17:30:02.217Z,22.4
2018-05-12T17:45:02.476Z,22.6
2018-05-12T18:00:02.689Z,22.6
2018-05-12T18:15:02.968Z,22.3
2018-05-12T18:30:02.338Z,21.8
2018-05-12T18:45:02.589Z,21.1
2018-05-12T19:00:02.881Z,20.4
2018-05-12T19:15:03.101Z,20
2018-05-12T19:30:02.495Z,19.6
2018-05-12T19:45:02.698Z,19.1
2018-05-12T20:00:02.907Z,18.6
2018-05-12T20:15:03.220Z,18
2018-05-12T20:30:02.502Z,17.8
2018-05-12T20:45:02.980Z,17.7
2018-05-12T21:00:02.210Z,17.6
2018-05-12T21:15:02.396Z,17
2018-05-12T21:30:02.677Z,16.6
2018-05-12T21:45:02.917Z,16.4
2018-05-12T22:00:03.141Z,15.6
2018-05-12T22:15:02.501Z,15.7
2018-05-12T22:30:02.825Z,15.4
2018-05-12T22:45:03.270Z,14.8
2018-05-12T23:00:02.553Z,14.8
2018-05-12T23:15:02.833Z,14.5
2018-05-12T23:30:03.157Z,14.2
2018-05-12T23:45:02.468Z,14.1
